Time;durP1;ratioP1;P1;durP2;ratioP2;P2;SDS_P1;SDS_P2;PMS_P1;PMS_P2;Temp;Humidity;BMP_temperature;BMP_pressure;BME280_temperature;BME280_humidity;BME280_pressure;Samples;Min_cycle;Max_cycle;Signal;HPM_P1;HPM_P2
2024/02/28 00:00:42;;;;;;;111.45;47.67;;;2.70;99.90;;;;;;5028474;28;20131;-74
2024/02/28 00:03:07;;;;;;;106.53;48.13;;;2.70;99.90;;;;;;5049144;28;20190;-73
2024/02/28 00:05:33;;;;;;;105.40;48.88;;;2.70;99.90;;;;;;5051383;28;20499;-75
2024/02/28 00:07:59;;;;;;;109.53;48.40;;;2.70;99.90;;;;;;5034046;28;20040;-74
2024/02/28 00:10:25;;;;;;;227.88;56.72;;;2.70;99.90;;;;;;5035349;28;20489;-74
2024/02/28 00:12:50;;;;;;;115.25;49.08;;;2.70;99.90;;;;;;5034108;28;20124;-75
2024/02/28 00:15:16;;;;;;;158.55;57.40;;;2.70;99.90;;;;;;5042580;28;20142;-76
2024/02/28 00:17:42;;;;;;;116.70;50.63;;;2.80;99.90;;;;;;5049300;28;20048;-76
2024/02/28 00:20:09;;;;;;;123.95;50.08;;;2.80;99.90;;;;;;5031029;28;20455;-76
2024/02/28 00:22:39;;;;;;;110.35;48.22;;;2.80;99.90;;;;;;5043798;28;20560;-76
2024/02/28 00:25:06;;;;;;;128.80;50.50;;;2.80;99.90;;;;;;5048686;28;20086;-76
2024/02/28 00:27:35;;;;;;;128.95;53.00;;;2.80;99.90;;;;;;5044010;28;20086;-76
2024/02/28 00:30:01;;;;;;;194.68;57.42;;;2.80;99.90;;;;;;5042479;28;20102;-77
2024/02/28 00:32:27;;;;;;;187.15;57.72;;;2.80;99.90;;;;;;5030578;28;20043;-76
2024/02/28 00:34:52;;;;;;;127.53;52.47;;;2.80;99.90;;;;;;5050180;28;20591;-77
2024/02/28 00:37:18;;;;;;;228.35;61.60;;;2.80;99.90;;;;;;5052274;28;20390;-77
2024/02/28 00:39:45;;;;;;;202.68;59.53;;;2.80;99.90;;;;;;5051755;28;20051;-77
2024/02/28 00:42:11;;;;;;;118.95;52.67;;;2.90;99.90;;;;;;5044195;28;20047;-76
2024/02/28 00:44:37;;;;;;;104.97;50.10;;;2.90;99.90;;;;;;5051368;28;20055;-77
2024/02/28 00:47:02;;;;;;;136.32;52.63;;;2.90;99.90;;;;;;5055509;28;20507;-76
2024/02/28 00:49:28;;;;;;;122.90;50.97;;;2.90;99.90;;;;;;5030562;28;20044;-77
2024/02/28 00:51:54;;;;;;;114.07;50.60;;;2.90;99.90;;;;;;5056126;28;20055;-76
2024/02/28 00:54:21;;;;;;;124.22;50.35;;;2.80;99.90;;;;;;5030352;28;20041;-76
2024/02/28 00:56:48;;;;;;;91.78;45.63;;;2.90;99.90;;;;;;5050471;28;20496;-77
2024/02/28 00:59:14;;;;;;;94.72;45.05;;;2.90;99.90;;;;;;5042899;28;20052;-77
2024/02/28 01:01:41;;;;;;;111.07;47.03;;;2.90;99.90;;;;;;5052950;28;20052;-76
2024/02/28 01:04:07;;;;;;;80.35;43.38;;;2.90;99.90;;;;;;5033359;28;20051;-75
2024/02/28 01:06:33;;;;;;;175.07;53.50;;;2.90;99.90;;;;;;5028704;28;20036;-75
2024/02/28 01:08:59;;;;;;;86.72;44.42;;;2.90;99.90;;;;;;5050361;28;20051;-75
2024/02/28 01:11:25;;;;;;;134.55;49.20;;;2.80;99.90;;;;;;5039888;28;20041;-75
2024/02/28 01:13:51;;;;;;;140.85;49.38;;;2.90;99.90;;;;;;5029953;28;20074;-75
2024/02/28 01:16:16;;;;;;;140.13;49.60;;;2.90;99.90;;;;;;5030374;28;20033;-74
2024/02/28 01:18:42;;;;;;;102.57;46.67;;;2.80;99.90;;;;;;5045920;28;20037;-75
2024/02/28 01:21:08;;;;;;;107.97;47.20;;;2.90;99.90;;;;;;5024939;28;21532;-75
2024/02/28 01:23:34;;;;;;;109.75;49.15;;;2.90;99.90;;;;;;5037527;28;20048;-75
2024/02/28 01:26:03;;;;;;;89.90;46.72;;;2.80;99.90;;;;;;5047967;28;20032;-75
2024/02/28 01:28:28;;;;;;;200.65;54.22;;;2.90;99.90;;;;;;5023262;28;20163;-75
2024/02/28 01:30:54;;;;;;;168.32;53.38;;;2.80;99.90;;;;;;5055480;28;20514;-75
2024/02/28 01:33:20;;;;;;;96.32;46.65;;;2.80;99.90;;;;;;5025686;28;20477;-75
2024/02/28 01:35:46;;;;;;;151.52;52.78;;;2.80;99.90;;;;;;5039071;28;20051;-74
2024/02/28 01:38:11;;;;;;;152.63;51.30;;;2.80;99.90;;;;;;5028222;28;20087;-74
2024/02/28 01:40:37;;;;;;;90.68;45.90;;;2.80;99.90;;;;;;5035955;28;20357;-74
2024/02/28 01:43:09;;;;;;;121.97;48.60;;;2.80;99.90;;;;;;5035248;28;20417;-73
2024/02/28 01:45:35;;;;;;;129.13;48.83;;;2.80;99.90;;;;;;5036313;28;20645;-74
2024/02/28 01:48:02;;;;;;;101.15;45.40;;;2.90;99.90;;;;;;5048233;28;20049;-74
2024/02/28 01:50:27;;;;;;;168.48;52.28;;;2.80;99.90;;;;;;5035541;28;20040;-74
2024/02/28 01:52:53;;;;;;;113.50;48.08;;;2.80;99.90;;;;;;5035938;28;20094;-74
2024/02/28 01:55:20;;;;;;;117.13;47.85;;;2.70;99.90;;;;;;5031103;28;20075;-74
2024/02/28 01:57:46;;;;;;;106.55;48.25;;;2.80;99.90;;;;;;5027156;28;20032;-75
2024/02/28 02:00:13;;;;;;;167.90;53.63;;;2.70;99.90;;;;;;5046946;28;20052;-75
2024/02/28 02:02:39;;;;;;;127.35;50.13;;;2.70;99.90;;;;;;5024731;28;20047;-75
2024/02/28 02:05:05;;;;;;;86.80;47.58;;;2.80;99.90;;;;;;5040366;28;20079;-76
2024/02/28 02:07:31;;;;;;;91.93;46.85;;;2.80;99.90;;;;;;5049563;28;20037;-75
2024/02/28 02:09:57;;;;;;;104.85;49.10;;;2.80;99.90;;;;;;5048127;28;20046;-75
2024/02/28 02:12:23;;;;;;;153.50;53.22;;;2.80;99.90;;;;;;5038573;28;20053;-75
2024/02/28 02:14:49;;;;;;;157.48;55.22;;;2.80;99.90;;;;;;5036382;28;20123;-75
2024/02/28 02:17:15;;;;;;;123.88;49.80;;;2.80;99.90;;;;;;5033192;28;20033;-76
2024/02/28 02:19:41;;;;;;;97.10;48.15;;;2.80;99.90;;;;;;5034322;28;20778;-75
2024/02/28 02:22:10;;;;;;;119.07;50.72;;;2.80;99.90;;;;;;5037689;28;20451;-75
2024/02/28 02:24:35;;;;;;;89.07;46.00;;;2.80;99.90;;;;;;5027778;28;20088;-75
2024/02/28 02:27:04;;;;;;;80.30;45.65;;;2.80;99.90;;;;;;5030825;28;20040;-75
2024/02/28 02:29:34;;;;;;;96.25;47.28;;;2.80;99.90;;;;;;5017226;28;20439;-75
2024/02/28 02:32:00;;;;;;;82.57;43.63;;;2.80;99.90;;;;;;5038567;28;20119;-75
2024/02/28 02:34:25;;;;;;;109.53;49.45;;;2.80;99.90;;;;;;5036853;28;20421;-74
2024/02/28 02:36:51;;;;;;;79.97;45.17;;;2.70;99.90;;;;;;5025557;28;20398;-75
2024/02/28 02:39:17;;;;;;;118.35;49.17;;;2.70;99.90;;;;;;5028592;28;20044;-75
2024/02/28 02:41:43;;;;;;;78.30;44.30;;;2.80;99.90;;;;;;5043366;28;20040;-75
2024/02/28 02:44:09;;;;;;;84.63;45.33;;;2.70;99.90;;;;;;5035588;28;20054;-75
2024/02/28 02:46:34;;;;;;;106.20;51.53;;;2.70;99.90;;;;;;5040070;28;20456;-75
2024/02/28 02:49:00;;;;;;;148.18;53.50;;;2.80;99.90;;;;;;5035577;28;20044;-75
2024/02/28 02:51:26;;;;;;;101.93;49.45;;;2.70;99.90;;;;;;5040313;28;20059;-75
2024/02/28 02:53:53;;;;;;;179.90;55.90;;;2.70;99.90;;;;;;5043279;28;20575;-75
2024/02/28 02:56:19;;;;;;;166.52;55.03;;;2.70;99.90;;;;;;5030273;28;20372;-75
2024/02/28 02:58:45;;;;;;;97.25;48.53;;;2.70;99.90;;;;;;5043897;28;20489;-75
2024/02/28 03:01:10;;;;;;;109.43;50.35;;;2.70;99.90;;;;;;5027788;28;20048;-74
2024/02/28 03:03:37;;;;;;;105.28;50.13;;;2.70;99.90;;;;;;5020235;28;20513;-75
2024/02/28 03:06:04;;;;;;;115.55;50.88;;;2.70;99.90;;;;;;5028460;28;20412;-74
2024/02/28 03:08:31;;;;;;;85.22;46.83;;;2.70;99.90;;;;;;5047708;28;20496;-75
2024/02/28 03:10:59;;;;;;;83.57;44.47;;;2.70;99.90;;;;;;5029395;28;20040;-75
2024/02/28 03:13:25;;;;;;;95.32;47.95;;;2.70;99.90;;;;;;5025622;28;20066;-75
2024/02/28 03:15:51;;;;;;;149.73;55.25;;;2.70;99.90;;;;;;5052340;28;20044;-73
2024/02/28 03:18:16;;;;;;;91.20;47.03;;;2.70;99.90;;;;;;5028297;28;20091;-74
2024/02/28 03:20:42;;;;;;;119.25;51.42;;;2.70;99.90;;;;;;5028685;28;20504;-73
2024/02/28 03:23:08;;;;;;;95.60;47.28;;;2.70;99.90;;;;;;5041213;28;20048;-74
2024/02/28 03:25:34;;;;;;;95.68;48.75;;;2.70;99.90;;;;;;5045245;28;20098;-73
2024/02/28 03:28:01;;;;;;;121.20;52.67;;;2.60;99.90;;;;;;5045079;28;20044;-74
2024/02/28 03:30:27;;;;;;;101.10;49.97;;;2.70;99.90;;;;;;5046958;28;20052;-75
2024/02/28 03:32:53;;;;;;;116.57;52.25;;;2.70;99.90;;;;;;5048973;28;20044;-75
2024/02/28 03:35:19;;;;;;;88.07;46.90;;;2.70;99.90;;;;;;5051659;28;20054;-75
2024/02/28 03:37:45;;;;;;;94.32;48.75;;;2.60;99.90;;;;;;5048004;28;20040;-75
2024/02/28 03:40:12;;;;;;;92.57;49.13;;;2.60;99.90;;;;;;5028673;28;20045;-75
2024/02/28 03:42:38;;;;;;;98.93;50.85;;;2.70;99.90;;;;;;5048207;28;20109;-76
2024/02/28 03:45:04;;;;;;;95.22;50.50;;;2.70;99.90;;;;;;5039746;28;20053;-77
2024/02/28 03:47:30;;;;;;;100.53;49.92;;;2.70;99.90;;;;;;5041300;28;20048;-77
2024/02/28 03:49:57;;;;;;;98.28;51.00;;;2.70;99.90;;;;;;5034781;28;20097;-77
2024/02/28 03:52:23;;;;;;;89.63;47.33;;;2.70;99.90;;;;;;5030045;28;20128;-76
2024/02/28 03:54:49;;;;;;;85.45;46.92;;;2.70;99.90;;;;;;5043231;28;20041;-77
2024/02/28 03:57:15;;;;;;;93.88;49.80;;;2.70;99.90;;;;;;5039793;28;20052;-77
2024/02/28 03:59:41;;;;;;;93.60;48.40;;;2.90;99.90;;;;;;5042309;28;20041;-76
2024/02/28 04:02:07;;;;;;;93.22;48.25;;;2.80;99.90;;;;;;5036878;28;20046;-77
2024/02/28 04:04:33;;;;;;;93.28;48.20;;;2.80;99.90;;;;;;5035925;28;20127;-75
2024/02/28 04:06:59;;;;;;;91.25;48.78;;;2.80;99.90;;;;;;5040727;28;20036;-76
2024/02/28 04:09:25;;;;;;;131.07;55.35;;;2.80;99.90;;;;;;5047211;28;20098;-76
2024/02/28 04:11:51;;;;;;;105.65;51.40;;;2.80;99.90;;;;;;5045528;28;20039;-75
2024/02/28 04:14:17;;;;;;;107.63;50.92;;;2.80;99.90;;;;;;5037780;28;20079;-76
2024/02/28 04:16:43;;;;;;;91.05;49.75;;;2.80;99.90;;;;;;5050207;28;20571;-76
2024/02/28 04:19:13;;;;;;;91.78;47.25;;;2.80;99.90;;;;;;5045201;28;20102;-75
2024/02/28 04:21:38;;;;;;;95.00;47.47;;;2.80;99.90;;;;;;5048767;28;20121;-74
2024/02/28 04:24:09;;;;;;;103.85;50.38;;;2.80;99.90;;;;;;5051008;28;20509;-75
2024/02/28 04:26:35;;;;;;;84.00;44.58;;;2.80;99.90;;;;;;5037008;28;20495;-74
2024/02/28 04:29:05;;;;;;;91.80;48.33;;;2.80;99.90;;;;;;5030962;28;20029;-74
2024/02/28 04:31:34;;;;;;;;;;;2.80;99.90;;;;;;5043628;28;20554;-74
2024/02/28 04:34:00;;;;;;;88.60;47.00;;;2.80;99.90;;;;;;5048414;28;20389;-74
2024/02/28 04:36:26;;;;;;;96.35;49.53;;;2.80;99.90;;;;;;5047224;28;20041;-75
2024/02/28 04:38:51;;;;;;;101.68;50.28;;;2.80;99.90;;;;;;5030863;28;20099;-74
2024/02/28 04:41:17;;;;;;;92.53;49.35;;;2.80;99.90;;;;;;5048422;28;20457;-75
2024/02/28 04:43:46;;;;;;;92.68;50.58;;;2.80;99.90;;;;;;5028854;28;20043;-75
2024/02/28 04:46:12;;;;;;;100.72;52.83;;;2.80;99.90;;;;;;5047407;28;20079;-74
2024/02/28 04:48:38;;;;;;;88.35;48.67;;;2.90;99.90;;;;;;5036134;28;20456;-75
2024/02/28 04:51:04;;;;;;;101.15;50.47;;;2.90;99.90;;;;;;5040948;28;20048;-75
2024/02/28 04:53:29;;;;;;;87.97;48.75;;;2.90;99.90;;;;;;5026559;28;20044;-76
2024/02/28 04:55:55;;;;;;;115.15;53.33;;;2.90;99.90;;;;;;5045806;28;20126;-75
2024/02/28 04:58:21;;;;;;;97.18;50.13;;;2.90;99.90;;;;;;5048443;28;20058;-75
2024/02/28 05:00:47;;;;;;;80.72;46.33;;;2.90;99.90;;;;;;5032812;28;20091;-75
2024/02/28 05:03:12;;;;;;;93.50;50.47;;;3.00;99.90;;;;;;5046114;28;20045;-75
2024/02/28 05:05:38;;;;;;;100.35;51.08;;;2.90;99.90;;;;;;5055855;28;20916;-75
2024/02/28 05:08:04;;;;;;;101.55;51.80;;;3.00;99.90;;;;;;5034730;28;20131;-74
2024/02/28 05:10:30;;;;;;;90.90;50.60;;;2.90;99.90;;;;;;5050499;28;20101;-75
2024/02/28 05:12:56;;;;;;;85.53;49.30;;;3.00;99.90;;;;;;5032968;28;20101;-76
2024/02/28 05:15:22;;;;;;;78.20;47.25;;;3.00;99.90;;;;;;5048137;28;20135;-75
2024/02/28 05:17:51;;;;;;;78.55;46.75;;;3.00;99.90;;;;;;5034614;28;20781;-75
2024/02/28 05:20:17;;;;;;;77.55;46.20;;;2.90;99.90;;;;;;5043326;28;20401;-75
2024/02/28 05:22:43;;;;;;;77.13;45.38;;;3.00;99.90;;;;;;5031131;28;20036;-73
2024/02/28 05:25:09;;;;;;;77.80;46.75;;;3.00;99.90;;;;;;5046639;28;20745;-74
2024/02/28 05:27:34;;;;;;;75.95;46.17;;;3.00;99.90;;;;;;5032513;28;20603;-74
2024/02/28 05:30:02;;;;;;;77.95;46.95;;;3.10;99.90;;;;;;5025613;28;20509;-74
2024/02/28 05:32:27;;;;;;;77.07;47.42;;;3.10;99.90;;;;;;5028688;28;20057;-75
2024/02/28 05:34:53;;;;;;;80.88;46.55;;;3.00;99.90;;;;;;5045869;28;20052;-75
2024/02/28 05:37:19;;;;;;;69.35;44.25;;;3.10;99.90;;;;;;5041085;28;20036;-74
2024/02/28 05:39:45;;;;;;;70.35;45.28;;;3.00;99.90;;;;;;5025941;28;20504;-74
2024/02/28 05:42:12;;;;;;;69.15;42.97;;;3.00;99.90;;;;;;5034178;28;20394;-74
2024/02/28 05:44:38;;;;;;;73.35;45.25;;;3.00;99.90;;;;;;5033178;28;20052;-74
2024/02/28 05:47:04;;;;;;;78.03;47.20;;;3.00;99.90;;;;;;5048660;28;20050;-73
2024/02/28 05:49:29;;;;;;;73.88;45.45;;;3.10;99.90;;;;;;5029247;28;20439;-75
2024/02/28 05:51:56;;;;;;;76.03;46.50;;;3.10;99.90;;;;;;5044496;28;20059;-75
2024/02/28 05:54:21;;;;;;;72.68;44.53;;;3.10;99.90;;;;;;5047041;28;20475;-74
2024/02/28 05:56:47;;;;;;;73.80;46.63;;;3.10;99.90;;;;;;5035006;28;20036;-74
2024/02/28 05:59:13;;;;;;;75.63;46.53;;;3.10;99.90;;;;;;5046823;28;20055;-74
2024/02/28 06:01:40;;;;;;;72.55;45.55;;;3.20;99.90;;;;;;5047489;28;20091;-75
2024/02/28 06:04:06;;;;;;;76.63;45.67;;;3.20;99.90;;;;;;5030483;28;20028;-75
2024/02/28 06:06:34;;;;;;;79.93;46.65;;;3.20;99.90;;;;;;5027298;28;20078;-75
2024/02/28 06:09:00;;;;;;;77.00;47.17;;;3.20;99.90;;;;;;5036050;28;20535;-75
2024/02/28 06:11:26;;;;;;;71.40;46.85;;;3.20;99.90;;;;;;5047952;28;20040;-76
2024/02/28 06:13:52;;;;;;;72.45;44.25;;;3.20;99.90;;;;;;5038585;28;20119;-76
2024/02/28 06:16:18;;;;;;;75.20;49.13;;;3.20;99.90;;;;;;5033356;28;20075;-76
2024/02/28 06:18:45;;;;;;;73.47;46.53;;;3.30;99.90;;;;;;5049315;28;20115;-76
2024/02/28 06:21:10;;;;;;;74.25;46.53;;;3.20;99.90;;;;;;5026723;28;20052;-76
2024/02/28 06:23:36;;;;;;;70.55;45.60;;;3.20;99.90;;;;;;5044326;28;20394;-75
2024/02/28 06:26:02;;;;;;;71.75;46.72;;;3.30;99.90;;;;;;5051451;28;20409;-75
2024/02/28 06:28:28;;;;;;;71.15;46.15;;;3.30;99.90;;;;;;5050535;28;20409;-75
2024/02/28 06:30:54;;;;;;;74.63;47.53;;;3.30;99.90;;;;;;5035470;28;20082;-75
2024/02/28 06:33:20;;;;;;;68.55;45.50;;;3.30;99.90;;;;;;5032539;28;20044;-75
2024/02/28 06:35:46;;;;;;;73.32;46.92;;;3.40;99.90;;;;;;5036871;28;20131;-76
2024/02/28 06:38:11;;;;;;;70.72;45.83;;;3.30;99.90;;;;;;5028873;28;20040;-75
2024/02/28 06:40:37;;;;;;;67.40;44.08;;;3.40;99.90;;;;;;5044724;28;20678;-75
2024/02/28 06:43:04;;;;;;;73.75;46.65;;;3.40;99.90;;;;;;5039706;28;20399;-75
2024/02/28 06:45:30;;;;;;;65.43;43.08;;;3.40;99.90;;;;;;5029844;28;20439;-74
2024/02/28 06:47:57;;;;;;;72.95;46.22;;;3.40;99.90;;;;;;5036588;28;20040;-75
2024/02/28 06:50:22;;;;;;;61.53;42.08;;;3.40;99.90;;;;;;5044814;28;20049;-74
2024/02/28 06:52:48;;;;;;;73.07;45.53;;;3.40;99.90;;;;;;5030449;28;20036;-74
2024/02/28 06:55:14;;;;;;;72.30;44.60;;;3.50;99.90;;;;;;5049189;28;20298;-74
2024/02/28 06:57:41;;;;;;;72.78;47.78;;;3.40;99.90;;;;;;5050861;28;20064;-73
2024/02/28 07:00:11;;;;;;;69.43;46.15;;;3.50;99.90;;;;;;5042209;28;20507;-74
2024/02/28 07:02:36;;;;;;;73.35;45.33;;;3.50;99.90;;;;;;5028727;28;20138;-74
2024/02/28 07:05:04;;;;;;;68.15;43.80;;;3.50;99.90;;;;;;5042483;28;20041;-72
2024/02/28 07:07:31;;;;;;;71.78;46.50;;;3.50;99.90;;;;;;5032306;28;20043;-74
2024/02/28 07:09:57;;;;;;;71.53;45.15;;;3.50;99.90;;;;;;5024688;28;20422;-74
2024/02/28 07:12:24;;;;;;;68.47;45.15;;;3.60;99.90;;;;;;5026508;28;20041;-73
2024/02/28 07:14:51;;;;;;;66.07;42.85;;;3.60;99.90;;;;;;5045703;28;20048;-73
2024/02/28 07:17:17;;;;;;;63.30;42.38;;;3.60;99.90;;;;;;5050944;28;20071;-74
2024/02/28 07:19:43;;;;;;;67.38;44.35;;;3.60;99.90;;;;;;5049333;28;20043;-74
2024/02/28 07:22:09;;;;;;;65.30;44.17;;;3.70;99.90;;;;;;5053335;28;20598;-73
2024/02/28 07:24:34;;;;;;;66.22;45.45;;;3.80;99.90;;;;;;5026363;28;20048;-73
2024/02/28 07:27:00;;;;;;;64.72;42.90;;;3.70;99.90;;;;;;5033942;28;20102;-74
2024/02/28 07:29:26;;;;;;;64.47;44.20;;;3.80;99.90;;;;;;5052707;28;20044;-76
2024/02/28 07:31:52;;;;;;;62.28;42.85;;;3.70;99.90;;;;;;5038666;28;20041;-75
2024/02/28 07:34:18;;;;;;;63.53;43.45;;;3.80;99.90;;;;;;5047996;28;20044;-74
2024/02/28 07:36:43;;;;;;;63.92;43.70;;;3.80;99.90;;;;;;5037300;28;20524;-74
2024/02/28 07:39:12;;;;;;;68.57;44.83;;;3.80;99.90;;;;;;5031223;28;20049;-74
2024/02/28 07:41:39;;;;;;;66.05;44.20;;;3.90;99.90;;;;;;5050108;28;20055;-74
2024/02/28 07:44:06;;;;;;;65.10;44.65;;;3.90;99.90;;;;;;5030202;28;20119;-75
2024/02/28 07:46:32;;;;;;;65.80;43.53;;;3.90;99.90;;;;;;5039628;28;20106;-76
2024/02/28 07:48:58;;;;;;;64.18;43.13;;;3.90;99.90;;;;;;5046012;28;20032;-75
2024/02/28 07:51:24;;;;;;;65.80;44.08;;;4.10;99.90;;;;;;5044993;28;20039;-74
2024/02/28 07:53:50;;;;;;;68.55;45.55;;;4.00;99.90;;;;;;5048488;28;20044;-74
2024/02/28 07:56:17;;;;;;;72.80;48.25;;;4.00;99.90;;;;;;5049418;28;20041;-74
2024/02/28 07:58:43;;;;;;;63.33;44.35;;;4.00;99.90;;;;;;5049349;28;20098;-74
2024/02/28 08:01:09;;;;;;;65.25;45.33;;;4.00;99.90;;;;;;5048579;28;20053;-74
2024/02/28 08:03:35;;;;;;;67.68;46.78;;;4.10;99.90;;;;;;5055787;28;20405;-73
2024/02/28 08:06:01;;;;;;;70.18;45.33;;;4.10;99.90;;;;;;5055750;28;20044;-74
2024/02/28 08:08:26;;;;;;;68.75;46.08;;;4.10;99.90;;;;;;5059851;28;20123;-75
2024/02/28 08:10:52;;;;;;;69.10;47.03;;;4.10;99.90;;;;;;5043925;28;20078;-75
2024/02/28 08:13:19;;;;;;;63.58;43.20;;;4.10;99.90;;;;;;5033883;28;20310;-75
2024/02/28 08:15:45;;;;;;;62.58;45.33;;;4.10;99.90;;;;;;5051263;28;20082;-75
2024/02/28 08:18:11;;;;;;;58.42;43.00;;;4.20;99.90;;;;;;5044646;28;20475;-75
2024/02/28 08:20:37;;;;;;;68.57;46.88;;;4.20;99.90;;;;;;5030193;28;20127;-75
2024/02/28 08:23:04;;;;;;;66.82;45.55;;;4.20;99.90;;;;;;5031776;28;20045;-75
2024/02/28 08:25:30;;;;;;;60.88;44.38;;;4.20;99.90;;;;;;5049165;28;20127;-75
2024/02/28 08:27:56;;;;;;;63.25;45.30;;;4.20;99.90;;;;;;5043083;28;20147;-75
2024/02/28 08:30:22;;;;;;;67.53;46.05;;;4.30;99.90;;;;;;5033351;28;20040;-75
2024/02/28 08:32:48;;;;;;;63.13;45.17;;;4.30;99.90;;;;;;5050766;28;20094;-75
2024/02/28 08:35:14;;;;;;;65.93;46.17;;;4.30;99.90;;;;;;5048197;28;20048;-75
2024/02/28 08:37:40;;;;;;;67.72;45.95;;;4.30;99.90;;;;;;5042533;28;20045;-75
2024/02/28 08:40:07;;;;;;;70.55;49.33;;;4.40;99.90;;;;;;5060150;28;20085;-75
2024/02/28 08:42:33;;;;;;;67.50;47.00;;;4.40;99.90;;;;;;5041754;28;20044;-75
2024/02/28 08:44:59;;;;;;;64.13;45.78;;;4.40;99.90;;;;;;5052026;28;20067;-74
2024/02/28 08:47:26;;;;;;;70.57;47.50;;;4.40;99.90;;;;;;5032520;28;20154;-74
2024/02/28 08:49:53;;;;;;;67.38;46.55;;;4.40;99.90;;;;;;5047592;28;20046;-74
2024/02/28 08:52:20;;;;;;;66.18;46.30;;;4.40;99.90;;;;;;5049787;28;20052;-75
2024/02/28 08:54:47;;;;;;;69.55;48.25;;;4.40;99.90;;;;;;5036282;28;20044;-75
2024/02/28 08:57:13;;;;;;;70.53;48.65;;;4.50;99.90;;;;;;5044338;28;20044;-74
2024/02/28 08:59:39;;;;;;;70.68;48.35;;;4.50;99.90;;;;;;5035205;28;20471;-74
2024/02/28 09:02:06;;;;;;;64.43;45.90;;;4.50;99.90;;;;;;5032298;28;20036;-74
2024/02/28 09:04:32;;;;;;;69.72;47.10;;;4.60;99.90;;;;;;5042657;28;20120;-75
2024/02/28 09:06:58;;;;;;;63.55;47.33;;;4.60;99.90;;;;;;5035643;28;20045;-74
2024/02/28 09:09:24;;;;;;;72.88;50.38;;;4.60;99.90;;;;;;5045163;28;20079;-74
2024/02/28 09:11:49;;;;;;;65.45;48.15;;;4.70;99.90;;;;;;5038879;28;20488;-73
2024/02/28 09:14:15;;;;;;;69.63;49.30;;;4.60;99.90;;;;;;5027424;28;20040;-75
2024/02/28 09:16:41;;;;;;;66.00;48.30;;;4.70;99.90;;;;;;5050566;28;20040;-74
2024/02/28 09:19:07;;;;;;;69.10;48.58;;;4.70;99.90;;;;;;5034784;28;20044;-75
2024/02/28 09:21:32;;;;;;;72.90;48.20;;;4.70;99.90;;;;;;5029025;28;20048;-74
2024/02/28 09:23:58;;;;;;;70.60;50.45;;;4.90;99.90;;;;;;5044768;28;20405;-75
2024/02/28 09:26:24;;;;;;;80.97;52.67;;;4.80;99.90;;;;;;5051679;28;20040;-75
2024/02/28 09:28:49;;;;;;;74.03;49.28;;;4.80;99.90;;;;;;5042246;28;20044;-75
2024/02/28 09:31:15;;;;;;;74.07;50.38;;;4.90;99.90;;;;;;5040773;28;20066;-74
2024/02/28 09:33:41;;;;;;;77.15;51.17;;;4.90;99.90;;;;;;5031629;28;20037;-75
2024/02/28 09:36:07;;;;;;;73.82;49.83;;;4.90;99.90;;;;;;5044165;28;20284;-75
2024/02/28 09:38:34;;;;;;;74.80;50.80;;;4.90;99.90;;;;;;5053901;28;20131;-75
2024/02/28 09:41:01;;;;;;;79.55;55.75;;;4.90;99.90;;;;;;5024133;28;20044;-74
2024/02/28 09:43:30;;;;;;;78.43;53.70;;;5.00;99.90;;;;;;5029506;28;20116;-75
2024/02/28 09:46:06;;;;;;;71.85;52.83;;;5.10;99.90;;;;;;5041736;28;20053;-75
2024/02/28 09:48:32;;;;;;;71.22;50.97;;;5.10;99.90;;;;;;5030929;28;20036;-75
2024/02/28 09:51:00;;;;;;;72.57;53.15;;;5.10;99.90;;;;;;5053622;28;20054;-75
2024/02/28 09:53:26;;;;;;;69.78;51.33;;;5.20;99.90;;;;;;5044851;28;20287;-75
2024/02/28 09:55:53;;;;;;;75.05;52.25;;;5.30;99.90;;;;;;5034429;28;20050;-75
2024/02/28 09:58:22;;;;;;;70.43;50.47;;;5.30;99.90;;;;;;5047110;28;20136;-75
2024/02/28 10:00:49;;;;;;;72.70;53.90;;;5.40;99.90;;;;;;5045936;28;20044;-75
2024/02/28 10:03:20;;;;;;;69.70;52.40;;;5.50;99.90;;;;;;5043489;28;20136;-75
2024/02/28 10:05:47;;;;;;;67.45;49.83;;;5.60;99.90;;;;;;5040854;28;20480;-75
2024/02/28 10:08:14;;;;;;;71.97;54.13;;;5.60;99.90;;;;;;5032172;28;20045;-75
2024/02/28 10:10:49;;;;;;;66.30;50.80;;;5.60;99.90;;;;;;5024519;28;20099;-75
2024/02/28 10:13:18;;;;;;;63.60;50.10;;;5.60;99.90;;;;;;5043708;28;20451;-75
2024/02/28 10:15:44;;;;;;;64.97;49.00;;;5.80;99.90;;;;;;5028455;28;20509;-75
2024/02/28 10:18:10;;;;;;;64.53;49.63;;;5.70;99.90;;;;;;5049382;28;20098;-75
2024/02/28 10:20:36;;;;;;;69.13;49.83;;;5.70;99.90;;;;;;5030354;28;20094;-75
2024/02/28 10:23:06;;;;;;;65.78;50.38;;;5.70;99.90;;;;;;5024215;28;20032;-75
2024/02/28 10:25:32;;;;;;;66.35;51.58;;;5.70;99.90;;;;;;5041877;28;20569;-75
2024/02/28 10:28:02;;;;;;;66.18;48.88;;;5.70;99.90;;;;;;5050081;28;20056;-75
2024/02/28 10:30:28;;;;;;;67.13;50.13;;;5.70;99.90;;;;;;5047865;28;20068;-75
2024/02/28 10:32:54;;;;;;;67.10;51.60;;;5.70;99.90;;;;;;5044185;28;20489;-75
2024/02/28 10:35:20;;;;;;;68.63;51.95;;;5.80;99.90;;;;;;5046036;28;20245;-76
2024/02/28 10:37:50;;;;;;;68.45;52.42;;;6.00;99.90;;;;;;5028697;28;20152;-76
2024/02/28 10:40:20;;;;;;;65.93;52.25;;;5.90;99.90;;;;;;5031221;28;20497;-76
2024/02/28 10:42:48;;;;;;;67.40;51.67;;;6.00;99.90;;;;;;5035646;28;20040;-76
2024/02/28 10:45:17;;;;;;;60.95;49.88;;;6.00;99.90;;;;;;5047379;28;20033;-77
2024/02/28 10:47:43;;;;;;;64.32;50.67;;;6.10;99.90;;;;;;5025982;28;20082;-76
2024/02/28 10:50:09;;;;;;;59.65;48.50;;;6.10;99.90;;;;;;5032398;28;20048;-75
2024/02/28 10:52:39;;;;;;;61.22;49.47;;;6.10;99.90;;;;;;5031788;28;20040;-76
2024/02/28 10:55:08;;;;;;;62.40;49.22;;;6.20;99.90;;;;;;5050834;28;20101;-76
2024/02/28 10:57:36;;;;;;;60.25;47.80;;;6.20;99.90;;;;;;5032581;28;20040;-76
2024/02/28 11:00:05;;;;;;;58.30;48.53;;;6.30;99.90;;;;;;5045026;28;20881;-76
2024/02/28 11:02:32;;;;;;;59.83;48.88;;;6.20;99.90;;;;;;5037136;28;20032;-76
2024/02/28 11:05:01;;;;;;;58.28;48.47;;;6.30;99.90;;;;;;5026673;28;20040;-75
2024/02/28 11:07:27;;;;;;;58.63;48.03;;;6.30;99.90;;;;;;5027169;28;20197;-76
2024/02/28 11:09:56;;;;;;;59.17;49.08;;;6.40;99.90;;;;;;5025065;28;20147;-76
2024/02/28 11:12:29;;;;;;;59.42;50.10;;;6.50;99.90;;;;;;5034156;28;20435;-75
2024/02/28 11:15:05;;;;;;;55.63;47.40;;;6.50;99.90;;;;;;5028453;28;20080;-75
2024/02/28 11:17:32;;;;;;;52.10;45.70;;;6.60;99.90;;;;;;5038476;28;20044;-76
2024/02/28 11:19:59;;;;;;;56.90;45.47;;;6.70;99.90;;;;;;5026273;28;20048;-76
2024/02/28 11:22:28;;;;;;;54.50;46.65;;;6.70;99.90;;;;;;5031653;28;20507;-75
2024/02/28 11:24:55;;;;;;;53.40;45.65;;;6.70;99.90;;;;;;5028300;28;20098;-76
2024/02/28 11:27:22;;;;;;;54.83;45.50;;;6.80;99.90;;;;;;5024212;28;20041;-75
2024/02/28 11:29:49;;;;;;;54.20;45.35;;;6.80;99.90;;;;;;5022739;28;20047;-76
2024/02/28 11:32:15;;;;;;;50.80;45.35;;;6.80;99.90;;;;;;5020946;28;20524;-75
2024/02/28 11:34:42;;;;;;;48.58;43.05;;;6.90;99.90;;;;;;5039191;28;20040;-76
2024/02/28 11:37:12;;;;;;;49.88;44.55;;;6.90;99.90;;;;;;5014066;28;20378;-76
2024/02/28 11:39:38;;;;;;;52.60;46.45;;;6.90;99.90;;;;;;5030672;28;20044;-76
2024/02/28 11:42:15;;;;;;;51.72;44.30;;;6.90;99.90;;;;;;5046688;28;20044;-75
2024/02/28 11:44:42;;;;;;;51.63;44.70;;;6.90;99.90;;;;;;5054134;28;20473;-75
2024/02/28 11:47:11;;;;;;;51.65;42.83;;;7.00;99.90;;;;;;5043396;28;20041;-75
2024/02/28 11:49:40;;;;;;;46.42;41.20;;;7.10;99.90;;;;;;5050555;28;20088;-75
2024/02/28 11:52:06;;;;;;;45.30;40.53;;;7.10;99.90;;;;;;5046907;28;20098;-75
2024/02/28 11:54:32;;;;;;;49.40;43.10;;;7.20;99.90;;;;;;5043994;28;20420;-74
2024/02/28 11:56:58;;;;;;;52.20;46.60;;;7.20;99.90;;;;;;5028007;28;20630;-75
2024/02/28 11:59:23;;;;;;;49.03;43.72;;;7.30;99.90;;;;;;5045001;28;20044;-75
2024/02/28 12:01:50;;;;;;;50.42;45.17;;;7.30;99.90;;;;;;5025072;28;20052;-74
2024/02/28 12:04:16;;;;;;;52.85;47.20;;;7.40;99.90;;;;;;5032980;28;20043;-74
2024/02/28 12:06:42;;;;;;;47.20;42.25;;;7.50;99.90;;;;;;5035230;28;20498;-74
2024/02/28 12:09:11;;;;;;;46.72;41.88;;;7.50;99.90;;;;;;5041175;28;20568;-74
2024/02/28 12:11:37;;;;;;;44.05;39.58;;;7.50;99.90;;;;;;5042188;28;20079;-74
2024/02/28 12:14:06;;;;;;;46.20;41.42;;;7.60;99.90;;;;;;5045572;28;20043;-74
2024/02/28 12:16:32;;;;;;;44.28;39.95;;;7.60;99.90;;;;;;5028236;28;20158;-74
2024/02/28 12:18:58;;;;;;;44.60;40.00;;;7.60;99.90;;;;;;5041643;28;20072;-75
2024/02/28 12:21:27;;;;;;;43.00;38.70;;;7.60;99.90;;;;;;5046320;28;20083;-73
2024/02/28 12:23:53;;;;;;;43.30;39.05;;;7.60;99.90;;;;;;5030512;28;20487;-74
2024/02/28 12:26:19;;;;;;;42.83;38.42;;;7.70;99.90;;;;;;5049022;28;20048;-74
2024/02/28 12:28:45;;;;;;;43.08;38.70;;;7.60;99.90;;;;;;5032722;28;20086;-74
2024/02/28 12:31:12;;;;;;;44.20;39.75;;;7.70;99.90;;;;;;5032108;28;20068;-75